Aeroporto :
LOGIN :

Iscrizione | Disclaimer

   EN    FR    IT 

 










Sommario :    VFR   VFR Marginale   IFR   IFR Intensivo   IFR Molto Intensivo
Visibilità : 
Base nubi : 
>= 8 km
>= 3000ft
5 / 8 km
1000 / 3000 ft
1500m / 5 km
500 / 1000 ft
800 / 1500m
200 / 500 ft
< 800m
< 200 ft
Simboli :   Temporali  Nebbia  Neve Forte  Precipitazioni Forti  Vento > 20 kt
SIGMETs :   Varie  Temporali  Ghiacco  Turbolenza  Onda orograficha  Ceneri Vulcaniche






- Altitudine del aeroporto : 412 ft
- Codice IATA : ORE


LFOJ - Orleans

ULTIMO METAR :
  • 220200Z AUTO 34003KT CAVOK M01/M02 Q1037

METARs OBSOLETI :
  • 220130Z AUTO 36005KT CAVOK M01/M02 Q1037
  • 220100Z AUTO 36005KT CAVOK M01/M02 Q1037
  • 220030Z AUTO 35004KT CAVOK M01/M02 Q1037
  • 220000Z AUTO 34003KT CAVOK M01/M02 Q1037
  • 212330Z AUTO 34004KT CAVOK M02/M03 Q1037
  • 212300Z AUTO 33002KT CAVOK M01/M02 Q1037

TAF TAF LFOJ
Valido dal 21 a 21 ore il 22 a 21 ore UTC


212000Z 2121/2221 34005KT CAVOK TX05/2215Z TNM01/2202Z
BECMG 2202/2204 BKN014 OVC018
BECMG 2208/2210 BKN008 OVC012
BECMG 2213/2215 BKN012 OVC016



MetMap, La meteo Aeronautica in un colpo d'occhio ! - Copyright ORBIFLY Dicembre 2007 - Disclaimer

ORBIFLY MET'MAP TEAM :

Programmazione e sviluppo : Alexandra Zaïnal
Concezione : Baudouin d'Aumeries
Aiuto per la programmazione : Marc-Olivier Méhu
Supporto tecnico e logistico : Manuel Goepfert
Aiuto per la traduzione : Arnaldo La Scala

Contatto : metmap@orbifly.com




FONTI E CREDITI :

   NOAA